createdAt,value
2018-05-11T00:02:25.419Z,101128.28
2018-05-11T00:04:53.670Z,101124.81
2018-05-11T00:07:22.155Z,101122.89
2018-05-11T00:09:51.002Z,101132.45
2018-05-11T00:12:19.322Z,101140.06
2018-05-11T00:14:47.561Z,101144.17
2018-05-11T00:17:16.074Z,101139.63
2018-05-11T00:19:44.334Z,101153.41
2018-05-11T00:22:12.634Z,101152.86
2018-05-11T00:24:40.902Z,101155.53
2018-05-11T00:27:09.210Z,101159.20
2018-05-11T00:29:37.729Z,101156.71
2018-05-11T00:32:06.026Z,101155.31
2018-05-11T00:34:34.300Z,101163.61
2018-05-11T00:37:02.698Z,101164.49
2018-05-11T00:39:30.967Z,101175.73
2018-05-11T00:41:59.463Z,101176.78
2018-05-11T00:44:27.709Z,101174.02
2018-05-11T00:46:56.294Z,101179.58
2018-05-11T00:49:24.677Z,101181.70
2018-05-11T00:51:53.020Z,101192.34
2018-05-11T00:54:21.277Z,101198.16
2018-05-11T00:56:49.594Z,101200.81
2018-05-11T00:59:17.994Z,101211.06
2018-05-11T01:01:46.282Z,101210.95
2018-05-11T01:04:14.527Z,101213.98
2018-05-11T01:06:42.834Z,101215.47
2018-05-11T01:09:11.175Z,101226.14
2018-05-11T01:11:39.850Z,101231.73
2018-05-11T01:14:08.298Z,101245.53
2018-05-11T01:16:36.764Z,101249.67
2018-05-11T01:19:05.015Z,101255.50
2018-05-11T01:21:33.290Z,101254.88
2018-05-11T01:24:01.563Z,101257.34
2018-05-11T01:26:29.861Z,101265.00
2018-05-11T01:28:58.306Z,101269.91
2018-05-11T01:31:26.587Z,101270.67
2018-05-11T01:33:54.822Z,101276.19
2018-05-11T01:36:23.179Z,101277.37
2018-05-11T01:38:51.605Z,101276.89
2018-05-11T01:41:19.883Z,101281.70
2018-05-11T01:43:48.585Z,101286.82
2018-05-11T01:46:16.898Z,101282.47
2018-05-11T01:48:45.155Z,101280.18
2018-05-11T01:51:13.652Z,101282.10
2018-05-11T01:53:41.897Z,101283.11
2018-05-11T01:56:10.181Z,101281.00
2018-05-11T01:58:38.446Z,101284.44
2018-05-11T02:01:06.759Z,101287.48
2018-05-11T02:03:35.037Z,101298.17
2018-05-11T02:06:03.329Z,101305.42
2018-05-11T02:08:31.614Z,101304.16
2018-05-11T02:10:59.878Z,101307.04
2018-05-11T02:13:28.518Z,101310.16
2018-05-11T02:15:56.826Z,101306.39
2018-05-11T02:18:25.078Z,101301.67
2018-05-11T02:20:53.357Z,101302.84
2018-05-11T02:23:21.628Z,101298.97
2018-05-11T02:25:49.922Z,101305.42
2018-05-11T02:28:18.218Z,101310.36
2018-05-11T02:30:46.506Z,101312.35
2018-05-11T02:33:14.938Z,101323.33
2018-05-11T02:35:43.214Z,101322.73
2018-05-11T02:38:11.490Z,101320.39
2018-05-11T02:40:39.766Z,101326.52
2018-05-11T02:43:08.042Z,101332.67
2018-05-11T02:45:36.315Z,101320.33
2018-05-11T02:48:04.607Z,101336.99
2018-05-11T02:50:32.897Z,101337.32
2018-05-11T02:53:01.361Z,101345.20
2018-05-11T02:55:29.651Z,101331.09
2018-05-11T02:57:57.910Z,101340.66
2018-05-11T03:00:26.207Z,101343.78
2018-05-11T03:02:54.847Z,101347.28
2018-05-11T03:05:23.115Z,101341.96
2018-05-11T03:07:51.399Z,101352.83
2018-05-11T03:10:19.677Z,101351.69
2018-05-11T03:12:47.967Z,101347.51
2018-05-11T03:15:16.258Z,101353.84
2018-05-11T03:17:44.721Z,101350.31
2018-05-11T03:20:13.026Z,101352.66
2018-05-11T03:22:41.259Z,101367.74
2018-05-11T03:25:09.579Z,101375.05
2018-05-11T03:27:37.841Z,101380.30
2018-05-11T03:30:06.135Z,101384.77
2018-05-11T03:32:34.394Z,101387.05
2018-05-11T03:35:02.657Z,101388.91
2018-05-11T03:37:30.958Z,101389.80
2018-05-11T03:39:59.201Z,101393.87
2018-05-11T03:42:27.715Z,101395.66
2018-05-11T03:44:55.954Z,101398.00
2018-05-11T03:47:24.269Z,101400.27
2018-05-11T03:49:52.514Z,101401.70
2018-05-11T03:52:20.817Z,101404.80
2018-05-11T03:54:49.046Z,101406.06
2018-05-11T03:57:17.363Z,101407.31
2018-05-11T03:59:45.600Z,101403.98
2018-05-11T04:05:21.238Z,101413.98
2018-05-11T04:08:53.339Z,101419.55
2018-05-11T04:11:21.830Z,101422.38
2018-05-11T04:13:50.285Z,101419.74
2018-05-11T04:16:18.854Z,101424.66
2018-05-11T04:18:47.468Z,101428.19
2018-05-11T04:22:19.062Z,101435.22
2018-05-11T04:24:47.774Z,101434.09
2018-05-11T04:27:16.222Z,101429.41
2018-05-11T04:29:44.790Z,101431.27
2018-05-11T04:32:13.414Z,101430.78
2018-05-11T04:34:42.070Z,101432.09
2018-05-11T04:37:10.578Z,101434.87
2018-05-11T04:39:39.021Z,101435.27
2018-05-11T04:42:07.462Z,101434.17
2018-05-11T04:44:35.978Z,101437.91
2018-05-11T04:47:04.477Z,101438.37
2018-05-11T04:49:33.139Z,101431.61
2018-05-11T04:52:01.624Z,101438.32
2018-05-11T04:54:30.092Z,101442.91
2018-05-11T04:56:58.802Z,101446.77
2018-05-11T04:59:27.246Z,101446.55
2018-05-11T05:01:55.758Z,101450.97
2018-05-11T05:04:24.215Z,101449.53
2018-05-11T05:06:52.674Z,101451.12
2018-05-11T05:09:21.207Z,101454.14
2018-05-11T05:11:49.692Z,101461.16
2018-05-11T05:14:18.143Z,101461.15
2018-05-11T05:16:46.654Z,101464.01
2018-05-11T05:19:15.211Z,101462.84
2018-05-11T05:21:43.709Z,101458.77
2018-05-11T05:24:12.263Z,101463.66
2018-05-11T05:26:40.990Z,101463.80
2018-05-11T05:29:09.406Z,101471.58
2018-05-11T05:31:38.158Z,101478.09
2018-05-11T05:34:06.646Z,101472.46
2018-05-11T05:36:35.110Z,101482.83
2018-05-11T05:39:03.816Z,101484.95
2018-05-11T05:41:32.291Z,101489.48
2018-05-11T05:44:01.148Z,101494.58
2018-05-11T05:46:29.656Z,101494.67
2018-05-11T05:48:58.323Z,101484.52
2018-05-11T05:51:26.854Z,101498.04
2018-05-11T05:53:55.471Z,101501.05
2018-05-11T05:56:24.051Z,101499.85
2018-05-11T05:58:52.631Z,101503.69
2018-05-11T06:01:21.166Z,101510.94
2018-05-11T06:03:49.890Z,101509.71
2018-05-11T06:06:18.579Z,101508.37
2018-05-11T06:08:47.175Z,101514.66
2018-05-11T06:11:16.919Z,101512.20
2018-05-11T06:13:45.642Z,101508.34
2018-05-11T06:16:14.084Z,101502.88
2018-05-11T06:18:42.495Z,101506.05
2018-05-11T06:21:11.105Z,101503.85
2018-05-11T06:23:39.676Z,101507.08
2018-05-11T06:26:08.426Z,101512.73
2018-05-11T06:28:36.919Z,101519.62
2018-05-11T06:31:05.819Z,101516.14
2018-05-11T06:33:34.967Z,101521.10
2018-05-11T06:36:03.576Z,101511.84
2018-05-11T06:38:32.054Z,101527.06
2018-05-11T06:41:00.531Z,101522.20
2018-05-11T06:43:28.998Z,101521.23
2018-05-11T06:45:57.581Z,101523.28
2018-05-11T06:48:26.218Z,101526.73
2018-05-11T06:50:54.939Z,101532.20
2018-05-11T06:53:23.521Z,101528.69
2018-05-11T06:55:52.019Z,101536.41
2018-05-11T06:58:20.894Z,101541.23
2018-05-11T07:00:49.914Z,101535.65
2018-05-11T07:03:18.430Z,101535.65
2018-05-11T07:05:46.998Z,101534.55
2018-05-11T07:08:15.491Z,101536.55
2018-05-11T07:10:44.355Z,101545.35
2018-05-11T07:13:12.852Z,101550.95
2018-05-11T07:15:41.954Z,101557.92
2018-05-11T07:18:10.393Z,101550.27
2018-05-11T07:20:38.907Z,101550.87
2018-05-11T07:23:07.551Z,101546.05
2018-05-11T07:25:36.316Z,101552.55
2018-05-11T07:28:05.119Z,101545.77
2018-05-11T07:30:33.663Z,101551.02
2018-05-11T07:33:02.103Z,101551.11
2018-05-11T07:35:30.823Z,101556.83
2018-05-11T07:37:59.658Z,101560.72
2018-05-11T07:40:28.384Z,101558.47
2018-05-11T07:42:56.798Z,101556.25
2018-05-11T07:45:25.281Z,101559.55
2018-05-11T07:47:53.739Z,101567.31
2018-05-11T07:50:22.346Z,101563.45
2018-05-11T07:52:50.871Z,101565.98
2018-05-11T07:55:19.703Z,101565.52
2018-05-11T07:57:48.346Z,101575.45
2018-05-11T08:00:16.895Z,101570.77
2018-05-11T08:02:45.801Z,101567.63
2018-05-11T08:05:14.415Z,101572.61
2018-05-11T08:07:42.883Z,101567.02
2018-05-11T08:10:11.826Z,101570.41
2018-05-11T08:12:40.469Z,101563.03
2018-05-11T08:15:08.946Z,101567.39
2018-05-11T08:17:37.443Z,101565.16
2018-05-11T08:20:06.316Z,101565.45
2018-05-11T08:22:35.337Z,101568.63
2018-05-11T08:25:04.139Z,101566.05
2018-05-11T08:27:32.886Z,101571.52
2018-05-11T08:30:01.469Z,101576.20
2018-05-11T08:32:29.970Z,101567.80
2018-05-11T08:34:58.717Z,101573.59
2018-05-11T08:37:27.542Z,101578.92
2018-05-11T08:39:56.106Z,101576.14
2018-05-11T08:42:24.704Z,101578.66
2018-05-11T08:44:53.354Z,101585.55
2018-05-11T08:47:21.975Z,101587.99
2018-05-11T08:49:50.546Z,101590.30
2018-05-11T08:52:19.246Z,101585.45
2018-05-11T08:54:47.678Z,101588.06
2018-05-11T08:57:16.179Z,101595.30
2018-05-11T08:59:44.665Z,101594.62
2018-05-11T09:02:13.351Z,101601.30
2018-05-11T09:04:42.371Z,101599.50
2018-05-11T09:07:11.079Z,101604.88
2018-05-11T09:09:39.657Z,101609.25
2018-05-11T09:12:08.506Z,101605.22
2018-05-11T09:14:37.423Z,101602.66
2018-05-11T09:17:07.419Z,101610.53
2018-05-11T09:19:36.194Z,101612.55
2018-05-11T09:22:04.999Z,101609.60
2018-05-11T09:24:33.799Z,101606.65
2018-05-11T09:27:02.318Z,101606.63
2018-05-11T09:29:31.195Z,101609.50
2018-05-11T09:32:00.091Z,101605.30
2018-05-11T09:34:28.739Z,101602.21
2018-05-11T09:36:57.429Z,101609.22
2018-05-11T09:39:25.981Z,101612.80
2018-05-11T09:41:54.408Z,101606.38
2018-05-11T09:44:23.287Z,101614.67
2018-05-11T09:46:51.994Z,101621.39
2018-05-11T09:49:20.687Z,101620.98
2018-05-11T09:51:49.567Z,101619.91
2018-05-11T09:54:18.434Z,101631.20
2018-05-11T09:56:46.923Z,101626.27
2018-05-11T09:59:15.376Z,101630.81
2018-05-11T10:01:43.985Z,101626.52
2018-05-11T10:04:12.827Z,101630.78
2018-05-11T10:06:41.954Z,101623.70
2018-05-11T10:09:10.551Z,101629.84
2018-05-11T10:11:39.095Z,101622.89
2018-05-11T10:14:08.074Z,101619.48
2018-05-11T10:16:36.574Z,101618.84
2018-05-11T10:19:05.346Z,101625.19
2018-05-11T10:21:33.998Z,101630.02
2018-05-11T10:24:02.522Z,101627.48
2018-05-11T10:26:31.186Z,101622.51
2018-05-11T10:28:59.829Z,101628.50
2018-05-11T10:31:28.400Z,101626.81
2018-05-11T10:33:57.049Z,101626.63
2018-05-11T10:36:25.584Z,101640.17
2018-05-11T10:38:54.180Z,101637.28
2018-05-11T10:41:23.706Z,101637.75
2018-05-11T10:43:52.362Z,101639.50
2018-05-11T10:46:21.695Z,101638.85
2018-05-11T10:48:50.472Z,101637.37
2018-05-11T10:51:19.527Z,101643.23
2018-05-11T10:53:48.634Z,101642.44
2018-05-11T10:56:18.093Z,101649.16
2018-05-11T10:58:47.739Z,101642.89
2018-05-11T11:01:19.402Z,101649.19
2018-05-11T11:03:48.548Z,101638.23
2018-05-11T11:06:17.657Z,101645.59
2018-05-11T11:08:46.636Z,101638.78
2018-05-11T11:11:16.015Z,101643.00
2018-05-11T11:13:44.576Z,101640.05
2018-05-11T11:16:13.808Z,101645.27
2018-05-11T11:18:42.811Z,101643.08
2018-05-11T11:21:11.902Z,101641.41
2018-05-11T11:26:15.387Z,101635.69
2018-05-11T11:28:44.310Z,101634.00
2018-05-11T11:31:14.284Z,101632.63
2018-05-11T11:33:43.127Z,101636.28
2018-05-11T11:36:11.808Z,101634.27
2018-05-11T11:38:42.563Z,101634.72
2018-05-11T11:41:11.487Z,101638.23
2018-05-11T11:43:39.964Z,101636.61
2018-05-11T11:46:08.815Z,101638.19
2018-05-11T11:48:40.840Z,101644.52
2018-05-11T11:51:12.046Z,101638.23
2018-05-11T11:53:40.641Z,101631.59
2018-05-11T11:56:09.936Z,101631.11
2018-05-11T11:58:39.924Z,101632.05
2018-05-11T12:01:09.907Z,101636.06
2018-05-11T12:03:39.183Z,101632.06
2018-05-11T12:06:08.984Z,101639.02
2018-05-11T12:08:41.407Z,101635.48
2018-05-11T12:11:09.995Z,101630.85
2018-05-11T12:13:38.926Z,101637.82
2018-05-11T12:16:07.560Z,101632.98
2018-05-11T12:18:36.207Z,101619.45
2018-05-11T12:21:04.947Z,101628.53
2018-05-11T12:23:33.522Z,101630.15
2018-05-11T12:26:02.120Z,101627.33
2018-05-11T12:28:30.767Z,101623.36
2018-05-11T12:30:59.400Z,101632.72
2018-05-11T12:33:27.912Z,101626.89
2018-05-11T12:35:57.547Z,101625.48
2018-05-11T12:38:26.849Z,101629.33
2018-05-11T12:40:56.973Z,101625.17
2018-05-11T12:43:25.720Z,101627.79
2018-05-11T12:45:54.455Z,101620.05
2018-05-11T12:48:23.131Z,101627.95
2018-05-11T12:50:51.851Z,101630.28
2018-05-11T12:53:20.414Z,101633.66
2018-05-11T12:55:48.970Z,101636.17
2018-05-11T12:58:18.751Z,101630.24
2018-05-11T13:00:50.127Z,101632.78
2018-05-11T13:03:19.359Z,101630.96
2018-05-11T13:05:49.316Z,101627.83
2018-05-11T13:08:19.020Z,101622.73
2018-05-11T13:10:47.524Z,101624.55
2018-05-11T13:13:16.163Z,101619.29
2018-05-11T13:15:46.010Z,101625.39
2018-05-11T13:18:14.622Z,101621.36
2018-05-11T13:20:43.344Z,101618.25
2018-05-11T13:23:11.910Z,101614.62
2018-05-11T13:25:41.627Z,101614.22
2018-05-11T13:28:11.144Z,101614.86
2018-05-11T13:30:39.793Z,101618.80
2018-05-11T13:33:08.340Z,101614.62
2018-05-11T13:35:36.954Z,101613.36
2018-05-11T13:38:05.510Z,101611.22
2018-05-11T13:40:34.807Z,101616.31
2018-05-11T13:43:03.634Z,101615.55
2018-05-11T13:45:32.347Z,101617.10
2018-05-11T13:48:01.196Z,101616.55
2018-05-11T13:50:29.720Z,101616.09
2018-05-11T13:52:58.339Z,101615.58
2018-05-11T13:55:26.930Z,101615.83
2018-05-11T13:57:55.551Z,101612.78
2018-05-11T14:00:24.511Z,101607.41
2018-05-11T14:02:53.482Z,101607.36
2018-05-11T14:05:23.217Z,101609.92
2018-05-11T14:07:51.733Z,101602.33
2018-05-11T14:10:20.339Z,101596.78
2018-05-11T14:12:50.853Z,101587.06
2018-05-11T14:15:20.684Z,101589.14
2018-05-11T14:17:49.343Z,101592.19
2018-05-11T14:20:18.080Z,101590.67
2018-05-11T14:22:46.876Z,101589.14
2018-05-11T14:25:15.491Z,101593.86
2018-05-11T14:27:44.038Z,101583.55
2018-05-11T14:30:14.534Z,101588.03
2018-05-11T14:35:19.371Z,101582.04
2018-05-11T14:37:48.542Z,101577.06
2018-05-11T14:40:18.394Z,101585.75
2018-05-11T14:42:47.491Z,101576.91
2018-05-11T14:45:16.313Z,101577.27
2018-05-11T14:47:44.829Z,101576.84
2018-05-11T14:50:13.554Z,101572.66
2018-05-11T14:52:43.188Z,101574.62
2018-05-11T14:55:12.924Z,101575.46
2018-05-11T14:57:42.381Z,101573.05
2018-05-11T15:00:12.096Z,101573.45
2018-05-11T15:02:41.717Z,101563.34
2018-05-11T15:05:10.709Z,101564.17
2018-05-11T15:07:39.230Z,101557.10
2018-05-11T15:10:07.977Z,101554.19
2018-05-11T15:12:36.639Z,101545.45
2018-05-11T15:15:06.016Z,101547.25
2018-05-11T15:17:34.551Z,101550.70
2018-05-11T15:20:03.338Z,101543.49
2018-05-11T15:22:32.159Z,101542.14
2018-05-11T15:25:00.847Z,101541.06
2018-05-11T15:27:31.120Z,101545.94
2018-05-11T15:29:59.587Z,101541.06
2018-05-11T15:32:29.189Z,101538.24
2018-05-11T15:34:58.101Z,101545.52
2018-05-11T15:37:27.030Z,101541.50
2018-05-11T15:39:55.832Z,101540.52
2018-05-11T15:42:26.260Z,101540.91
2018-05-11T15:44:56.497Z,101544.75
2018-05-11T15:47:25.315Z,101540.59
2018-05-11T15:49:53.912Z,101542.56
2018-05-11T15:52:22.838Z,101543.41
2018-05-11T15:54:51.291Z,101543.31
2018-05-11T15:57:19.707Z,101542.41
2018-05-11T15:59:48.316Z,101546.08
2018-05-11T16:02:17.384Z,101540.22
2018-05-11T16:04:46.948Z,101537.55
2018-05-11T16:07:15.940Z,101534.20
2018-05-11T16:09:45.625Z,101530.19
2018-05-11T16:12:15.219Z,101530.47
2018-05-11T16:14:43.766Z,101530.19
2018-05-11T16:17:12.515Z,101525.48
2018-05-11T16:19:41.036Z,101524.86
2018-05-11T16:22:09.899Z,101531.78
2018-05-11T16:24:38.552Z,101523.83
2018-05-11T16:27:07.088Z,101530.55
2018-05-11T16:29:35.874Z,101529.09
2018-05-11T16:32:04.695Z,101529.91
2018-05-11T16:34:33.169Z,101526.84
2018-05-11T16:37:01.963Z,101529.33
2018-05-11T16:39:30.963Z,101529.14
2018-05-11T16:42:00.474Z,101521.22
2018-05-11T16:44:30.300Z,101520.22
2018-05-11T16:47:00.088Z,101524.41
2018-05-11T16:49:29.297Z,101520.83
2018-05-11T16:51:58.063Z,101533.54
2018-05-11T16:54:27.572Z,101531.39
2018-05-11T16:56:59.022Z,101527.44
2018-05-11T16:59:27.700Z,101528.26
2018-05-11T17:01:56.645Z,101525.24
2018-05-11T17:04:31.818Z,101525.02
2018-05-11T17:07:00.339Z,101527.98
2018-05-11T17:09:34.259Z,101524.25
2018-05-11T17:12:04.746Z,101520.01
2018-05-11T17:14:33.812Z,101525.91
2018-05-11T17:17:02.759Z,101524.66
2018-05-11T17:19:31.829Z,101529.26
2018-05-11T17:22:00.998Z,101534.23
2018-05-11T17:24:31.091Z,101533.91
2018-05-11T17:27:00.652Z,101531.94
2018-05-11T17:29:30.126Z,101528.16
2018-05-11T17:31:58.943Z,101526.99
2018-05-11T17:34:28.848Z,101528.98
2018-05-11T17:36:57.748Z,101530.49
2018-05-11T17:39:27.358Z,101522.63
2018-05-11T17:41:56.486Z,101525.14
2018-05-11T17:44:25.083Z,101532.20
2018-05-11T17:46:54.101Z,101534.25
2018-05-11T17:49:23.616Z,101531.30
2018-05-11T17:51:52.294Z,101527.34
2018-05-11T17:54:20.760Z,101515.40
2018-05-11T17:56:50.336Z,101522.30
2018-05-11T17:59:18.911Z,101526.97
2018-05-11T18:01:52.123Z,101525.92
2018-05-11T18:04:22.160Z,101522.26
2018-05-11T18:06:51.155Z,101525.53
2018-05-11T18:09:19.775Z,101528.48
2018-05-11T18:11:48.466Z,101535.09
2018-05-11T18:14:17.115Z,101526.77
2018-05-11T18:16:45.658Z,101539.58
2018-05-11T18:19:15.376Z,101538.94
2018-05-11T18:21:45.112Z,101534.53
2018-05-11T18:24:14.502Z,101537.88
2018-05-11T18:26:43.420Z,101541.02
2018-05-11T18:29:11.970Z,101547.81
2018-05-11T18:31:41.183Z,101547.05
2018-05-11T18:34:09.946Z,101552.47
2018-05-11T18:36:38.981Z,101542.75
2018-05-11T18:39:08.158Z,101539.98
2018-05-11T18:41:36.671Z,101540.95
2018-05-11T18:44:05.291Z,101547.30
2018-05-11T18:46:35.950Z,101541.25
2018-05-11T18:49:05.230Z,101548.30
2018-05-11T18:51:34.985Z,101546.59
2018-05-11T18:54:04.851Z,101554.00
2018-05-11T18:56:33.832Z,101557.91
2018-05-11T18:59:02.443Z,101561.11
2018-05-11T19:01:31.584Z,101564.28
2018-05-11T19:04:00.847Z,101568.97
2018-05-11T19:06:30.165Z,101567.88
2018-05-11T19:08:59.602Z,101566.23
2018-05-11T19:11:28.941Z,101575.56
2018-05-11T19:13:57.748Z,101572.94
2018-05-11T19:16:26.809Z,101581.19
2018-05-11T19:18:56.330Z,101584.09
2018-05-11T19:21:26.732Z,101583.08
2018-05-11T19:23:56.117Z,101586.14
2018-05-11T19:26:24.887Z,101593.02
2018-05-11T19:28:53.406Z,101588.40
2018-05-11T19:31:23.387Z,101589.44
2018-05-11T19:33:53.307Z,101590.88
2018-05-11T19:36:22.158Z,101598.24
2018-05-11T19:38:55.166Z,101604.80
2018-05-11T19:41:26.294Z,101610.55
2018-05-11T19:43:57.581Z,101611.52
2018-05-11T19:46:26.876Z,101613.01
2018-05-11T19:48:56.341Z,101607.84
2018-05-11T19:51:26.282Z,101612.31
2018-05-11T19:53:54.734Z,101612.36
2018-05-11T19:56:23.258Z,101618.11
2018-05-11T19:58:52.875Z,101611.18
2018-05-11T20:01:22.739Z,101608.28
2018-05-11T20:03:56.363Z,101610.82
2018-05-11T20:06:25.772Z,101607.30
2018-05-11T20:08:54.838Z,101608.88
2018-05-11T20:11:24.053Z,101609.02
2018-05-11T20:13:52.674Z,101609.84
2018-05-11T20:16:22.656Z,101613.34
2018-05-11T20:18:52.795Z,101608.16
2018-05-11T20:21:22.231Z,101610.31
2018-05-11T20:23:51.721Z,101607.84
2018-05-11T20:26:22.524Z,101612.11
2018-05-11T20:28:52.218Z,101606.83
2018-05-11T20:31:20.988Z,101607.44
2018-05-11T20:33:49.502Z,101616.35
2018-05-11T20:36:20.170Z,101612.12
2018-05-11T20:38:49.600Z,101614.60
2018-05-11T20:41:18.781Z,101612.27
2018-05-11T20:43:47.593Z,101614.97
2018-05-11T20:46:16.687Z,101614.87
2018-05-11T20:48:46.628Z,101618.17
2018-05-11T20:51:15.674Z,101612.77
2018-05-11T20:53:44.324Z,101611.89
2018-05-11T20:56:13.785Z,101619.02
2018-05-11T20:58:42.764Z,101621.87
2018-05-11T21:01:11.207Z,101624.11
2018-05-11T21:03:39.721Z,101618.17
2018-05-11T21:06:09.339Z,101628.26
2018-05-11T21:08:38.376Z,101634.31
2018-05-11T21:11:06.856Z,101632.19
2018-05-11T21:13:36.147Z,101625.64
2018-05-11T21:16:05.243Z,101625.29
2018-05-11T21:18:34.521Z,101627.46
2018-05-11T21:21:03.437Z,101630.52
2018-05-11T21:23:32.078Z,101626.83
2018-05-11T21:26:01.289Z,101626.72
2018-05-11T21:28:29.819Z,101621.22
2018-05-11T21:30:58.323Z,101619.48
2018-05-11T21:33:27.541Z,101625.42
2018-05-11T21:35:57.145Z,101626.38
2018-05-11T21:38:25.672Z,101613.59
2018-05-11T21:40:54.964Z,101612.74
2018-05-11T21:43:23.359Z,101622.17
2018-05-11T21:46:50.999Z,101620.13
2018-05-11T21:49:19.597Z,101618.63
2018-05-11T21:51:48.407Z,101620.27
2018-05-11T21:54:17.067Z,101616.33
2018-05-11T21:56:46.447Z,101614.69
2018-05-11T21:59:17.130Z,101617.00
2018-05-11T22:01:46.445Z,101611.84
2018-05-11T22:04:15.166Z,101606.87
2018-05-11T22:06:44.995Z,101606.20
2018-05-11T22:09:13.550Z,101601.25
2018-05-11T22:11:42.489Z,101606.61
2018-05-11T22:14:12.713Z,101598.52
2018-05-11T22:16:42.049Z,101602.78
2018-05-11T22:19:10.900Z,101594.00
2018-05-11T22:21:40.899Z,101591.25
2018-05-11T22:24:09.794Z,101584.11
2018-05-11T22:26:38.787Z,101587.80
2018-05-11T22:29:07.248Z,101584.78
2018-05-11T22:31:36.455Z,101574.38
2018-05-11T22:34:05.074Z,101580.14
2018-05-11T22:36:35.020Z,101580.27
2018-05-11T22:39:05.743Z,101578.64
2018-05-11T22:41:35.247Z,101569.32
2018-05-11T22:44:04.008Z,101570.67
2018-05-11T22:46:32.806Z,101562.06
2018-05-11T22:49:01.288Z,101567.81
2018-05-11T22:51:30.188Z,101562.35
2018-05-11T22:53:59.079Z,101563.03
2018-05-11T22:56:27.973Z,101564.66
2018-05-11T22:58:57.141Z,101563.16
2018-05-11T23:01:26.173Z,101556.17
2018-05-11T23:03:55.125Z,101555.75
2018-05-11T23:06:24.147Z,101551.91
2018-05-11T23:08:55.630Z,101557.27
2018-05-11T23:11:24.493Z,101551.09
2018-05-11T23:13:55.878Z,101551.12
2018-05-11T23:16:26.187Z,101557.13
2018-05-11T23:18:55.635Z,101555.64
2018-05-11T23:21:24.196Z,101554.94
2018-05-11T23:23:52.977Z,101559.48
2018-05-11T23:26:21.526Z,101555.37
2018-05-11T23:28:50.357Z,101550.70
2018-05-11T23:31:18.955Z,101551.54
2018-05-11T23:33:47.395Z,101557.41
2018-05-11T23:36:16.081Z,101555.50
2018-05-11T23:38:45.047Z,101560.59
2018-05-11T23:41:13.576Z,101559.36
2018-05-11T23:43:43.218Z,101554.55
2018-05-11T23:46:12.240Z,101552.47
2018-05-11T23:48:41.319Z,101550.98
2018-05-11T23:51:10.496Z,101564.14
2018-05-11T23:53:41.268Z,101562.09
2018-05-11T23:56:10.755Z,101556.88
2018-05-11T23:58:39.432Z,101565.66
